createdAt,value
2023-11-20T00:01:25.851Z,2.00
2023-11-20T00:03:57.438Z,1.40
2023-11-20T00:06:29.052Z,1.60
2023-11-20T00:09:00.739Z,1.60
2023-11-20T00:11:32.178Z,1.60
2023-11-20T00:14:03.454Z,1.60
2023-11-20T00:16:34.778Z,1.60
2023-11-20T00:19:07.790Z,1.50
2023-11-20T00:21:42.032Z,1.30
2023-11-20T00:24:13.508Z,1.70
2023-11-20T00:26:45.013Z,1.40
2023-11-20T00:29:17.205Z,1.40
2023-11-20T00:31:48.636Z,1.60
2023-11-20T00:34:20.007Z,1.40
2023-11-20T00:36:51.251Z,1.20
2023-11-20T00:39:22.550Z,1.60
2023-11-20T00:41:53.804Z,1.40
2023-11-20T00:44:25.082Z,1.50
2023-11-20T00:46:56.413Z,1.50
2023-11-20T00:49:27.801Z,2.30
2023-11-20T00:51:59.190Z,1.70
2023-11-20T00:54:30.549Z,1.20
2023-11-20T00:57:01.883Z,1.40
2023-11-20T00:59:33.245Z,1.30
2023-11-20T01:02:05.178Z,1.20
2023-11-20T01:04:38.109Z,1.30
2023-11-20T01:07:09.995Z,1.50
2023-11-20T01:09:43.880Z,1.50
2023-11-20T01:12:16.360Z,1.50
2023-11-20T01:14:49.154Z,1.60
2023-11-20T01:17:20.538Z,2.70
2023-11-20T01:19:52.232Z,1.30
2023-11-20T01:22:23.496Z,1.40
2023-11-20T01:24:54.815Z,1.40
2023-11-20T01:27:26.099Z,1.10
2023-11-20T01:29:57.544Z,1.20
2023-11-20T01:32:28.860Z,1.70
2023-11-20T01:35:00.415Z,1.40
2023-11-20T01:37:31.813Z,1.40
2023-11-20T01:40:05.697Z,1.20
2023-11-20T01:42:37.100Z,1.80
2023-11-20T01:45:09.976Z,1.60
2023-11-20T01:47:41.924Z,1.60
2023-11-20T01:50:15.903Z,1.60
2023-11-20T01:52:51.461Z,2.00
2023-11-20T01:55:23.675Z,2.10
2023-11-20T01:57:55.345Z,2.10
2023-11-20T02:00:28.010Z,1.30
2023-11-20T02:03:00.001Z,1.40
2023-11-20T02:05:31.333Z,1.80
2023-11-20T02:08:03.049Z,2.00
2023-11-20T02:10:35.434Z,1.70
2023-11-20T02:13:07.603Z,1.80
2023-11-20T02:15:39.799Z,2.00
2023-11-20T02:18:30.559Z,1.90
2023-11-20T02:21:02.280Z,1.30
2023-11-20T02:23:33.773Z,1.50
2023-11-20T02:26:26.082Z,1.50
2023-11-20T02:29:06.393Z,1.40
2023-11-20T02:31:37.823Z,1.40
2023-11-20T02:34:10.299Z,1.50
2023-11-20T02:36:42.009Z,1.40
2023-11-20T02:39:13.870Z,1.80
2023-11-20T02:41:46.324Z,1.50
2023-11-20T02:44:17.614Z,1.80
2023-11-20T02:46:48.962Z,1.60
2023-11-20T02:49:20.322Z,1.30
2023-11-20T02:51:52.101Z,1.70
2023-11-20T02:54:23.621Z,1.80
2023-11-20T02:56:54.887Z,1.90
2023-11-20T02:59:26.234Z,1.50
2023-11-20T03:01:57.667Z,1.40
2023-11-20T03:04:29.758Z,1.60
2023-11-20T03:07:01.097Z,1.20
2023-11-20T03:09:32.502Z,1.80
2023-11-20T03:12:05.477Z,1.40
2023-11-20T03:14:36.873Z,1.60
2023-11-20T03:17:08.922Z,1.60
2023-11-20T03:19:40.827Z,1.30
2023-11-20T03:22:12.152Z,1.40
2023-11-20T03:24:43.602Z,1.50
2023-11-20T03:27:14.878Z,2.50
2023-11-20T03:29:47.314Z,1.80
2023-11-20T03:32:18.553Z,2.00
2023-11-20T03:34:49.985Z,2.10
2023-11-20T03:37:21.318Z,1.40
2023-11-20T03:39:52.645Z,1.50
2023-11-20T03:42:24.382Z,1.20
2023-11-20T03:44:55.694Z,2.30
2023-11-20T03:47:27.869Z,1.30
2023-11-20T03:49:59.201Z,1.30
2023-11-20T03:52:30.645Z,1.70
2023-11-20T03:55:02.008Z,1.40
2023-11-20T03:57:33.838Z,1.80
2023-11-20T04:00:06.189Z,1.50
2023-11-20T04:02:37.527Z,1.70
2023-11-20T04:05:10.332Z,1.10
2023-11-20T04:10:12.868Z,1.20
2023-11-20T04:15:14.621Z,1.10
2023-11-20T04:17:47.206Z,2.10
2023-11-20T04:20:19.198Z,1.10
2023-11-20T04:22:51.149Z,1.40
2023-11-20T04:25:22.550Z,1.20
2023-11-20T04:27:54.169Z,1.50
2023-11-20T04:30:25.640Z,1.50
2023-11-20T04:32:57.030Z,1.30
2023-11-20T04:35:28.415Z,1.30
2023-11-20T04:37:59.664Z,2.30
2023-11-20T04:40:30.988Z,1.40
2023-11-20T04:43:02.261Z,1.20
2023-11-20T04:45:33.888Z,1.30
2023-11-20T04:48:05.877Z,1.10
2023-11-20T04:50:37.400Z,1.20
2023-11-20T04:53:08.652Z,1.40
2023-11-20T04:55:39.995Z,1.10
2023-11-20T04:58:11.350Z,1.10
2023-11-20T05:00:43.175Z,1.30
2023-11-20T05:03:14.670Z,1.20
2023-11-20T05:05:47.546Z,1.30
2023-11-20T05:08:18.817Z,1.30
2023-11-20T05:10:50.120Z,1.10
2023-11-20T05:13:21.383Z,1.20
2023-11-20T05:15:52.660Z,1.30
2023-11-20T05:18:24.060Z,1.30
2023-11-20T05:20:55.448Z,1.20
2023-11-20T05:23:26.777Z,1.10
2023-11-20T05:25:58.055Z,1.30
2023-11-20T05:28:30.274Z,1.10
2023-11-20T05:31:01.740Z,1.00
2023-11-20T05:33:33.235Z,1.20
2023-11-20T05:36:04.956Z,1.30
2023-11-20T05:38:36.549Z,1.00
2023-11-20T05:41:08.132Z,1.20
2023-11-20T05:43:41.329Z,1.00
2023-11-20T05:46:15.790Z,1.10
2023-11-20T05:48:47.273Z,1.00
2023-11-20T05:51:21.696Z,1.40
2023-11-20T05:53:52.930Z,1.40
2023-11-20T05:56:24.218Z,1.50
2023-11-20T05:58:55.453Z,1.70
2023-11-20T06:01:27.688Z,1.40
2023-11-20T06:03:59.659Z,1.20
2023-11-20T06:06:31.211Z,1.40
2023-11-20T06:09:05.284Z,1.60
2023-11-20T06:11:36.604Z,1.00
2023-11-20T06:14:08.984Z,1.20
2023-11-20T06:16:40.456Z,1.20
2023-11-20T06:19:11.885Z,1.10
2023-11-20T06:21:49.993Z,1.50
2023-11-20T06:24:22.968Z,1.40
2023-11-20T06:26:54.526Z,1.40
2023-11-20T06:29:26.105Z,1.90
2023-11-20T06:31:57.484Z,1.20
2023-11-20T06:34:28.962Z,1.00
2023-11-20T06:37:00.252Z,1.50
2023-11-20T06:39:31.714Z,1.30
2023-11-20T06:42:03.029Z,1.30
2023-11-20T06:44:34.370Z,1.20
2023-11-20T06:47:08.988Z,1.40
2023-11-20T06:49:41.363Z,1.30
2023-11-20T06:52:12.698Z,1.20
2023-11-20T06:54:44.875Z,1.20
2023-11-20T06:57:16.366Z,1.20
2023-11-20T06:59:47.741Z,1.20
2023-11-20T07:02:22.450Z,2.00
2023-11-20T07:04:54.081Z,1.10
2023-11-20T07:07:25.761Z,1.50
2023-11-20T07:09:57.318Z,1.80
2023-11-20T07:12:28.621Z,1.80
2023-11-20T07:14:59.904Z,1.40
2023-11-20T07:17:31.236Z,1.70
2023-11-20T07:20:03.191Z,1.60
2023-11-20T07:22:34.456Z,1.30
2023-11-20T07:25:06.821Z,1.60
2023-11-20T07:27:39.512Z,1.40
2023-11-20T07:30:14.037Z,1.20
2023-11-20T07:32:45.453Z,1.20
2023-11-20T07:35:16.792Z,1.30
2023-11-20T07:37:48.145Z,1.30
2023-11-20T07:40:19.846Z,1.20
2023-11-20T07:42:51.529Z,1.40
2023-11-20T07:45:25.115Z,0.90
2023-11-20T07:47:56.419Z,1.50
2023-11-20T07:50:27.786Z,1.10
2023-11-20T07:53:00.264Z,1.30
2023-11-20T07:55:31.563Z,1.30
2023-11-20T07:58:02.926Z,1.60
2023-11-20T08:00:34.911Z,1.40
2023-11-20T08:03:06.568Z,1.60
2023-11-20T08:05:47.735Z,1.40
2023-11-20T08:08:20.688Z,1.20
2023-11-20T08:10:52.557Z,1.30
2023-11-20T08:13:23.988Z,1.30
2023-11-20T08:15:55.412Z,1.30
2023-11-20T08:18:26.891Z,1.20
2023-11-20T08:20:58.195Z,1.50
2023-11-20T08:23:29.410Z,1.10
2023-11-20T08:26:00.698Z,1.40
2023-11-20T08:28:31.915Z,1.60
2023-11-20T08:31:03.201Z,2.30
2023-11-20T08:33:34.601Z,1.60
2023-11-20T08:36:08.513Z,1.90
2023-11-20T08:38:39.838Z,1.40
2023-11-20T08:41:11.162Z,1.70
2023-11-20T08:43:42.433Z,1.80
2023-11-20T08:46:15.964Z,1.90
2023-11-20T08:48:47.849Z,1.50
2023-11-20T08:51:20.209Z,1.90
2023-11-20T08:53:51.747Z,1.80
2023-11-20T08:56:23.378Z,1.50
2023-11-20T08:58:54.719Z,2.10
2023-11-20T09:01:36.167Z,1.60
2023-11-20T09:04:10.701Z,1.50
2023-11-20T09:06:42.515Z,1.50
2023-11-20T09:09:14.667Z,1.70
2023-11-20T09:11:46.203Z,1.50
2023-11-20T09:14:17.890Z,1.90
2023-11-20T09:16:49.284Z,1.90
2023-11-20T09:19:21.147Z,1.70
2023-11-20T09:21:52.805Z,1.60
2023-11-20T09:24:24.198Z,1.50
2023-11-20T09:26:55.658Z,1.60
2023-11-20T09:29:26.997Z,1.60
2023-11-20T09:31:58.405Z,1.60
2023-11-20T09:34:30.990Z,1.90
2023-11-20T09:37:02.357Z,1.80
2023-11-20T09:39:33.855Z,2.00
2023-11-20T09:42:05.554Z,2.00
2023-11-20T09:44:39.459Z,1.60
2023-11-20T09:47:12.376Z,1.70
2023-11-20T09:49:46.651Z,2.20
2023-11-20T09:52:19.288Z,1.70
2023-11-20T09:54:53.232Z,1.50
2023-11-20T09:57:27.582Z,1.70
2023-11-20T09:59:59.013Z,1.60
2023-11-20T10:02:32.354Z,1.80
2023-11-20T10:05:05.825Z,1.50
2023-11-20T10:07:41.179Z,1.30
2023-11-20T10:10:14.807Z,2.70
2023-11-20T10:12:48.928Z,5.00
2023-11-20T10:15:22.646Z,2.30
2023-11-20T10:17:54.285Z,1.90
2023-11-20T10:20:27.849Z,1.80
2023-11-20T10:23:00.226Z,1.80
2023-11-20T10:25:32.848Z,1.70
2023-11-20T10:28:05.477Z,1.60
2023-11-20T10:30:36.812Z,1.50
2023-11-20T10:33:16.177Z,1.40
2023-11-20T10:35:47.984Z,1.60
2023-11-20T10:38:19.821Z,1.50
2023-11-20T10:40:52.006Z,1.70
2023-11-20T10:43:23.297Z,1.40
2023-11-20T10:45:54.780Z,1.60
2023-11-20T10:48:32.918Z,1.40
2023-11-20T10:51:09.803Z,1.90
2023-11-20T10:53:43.093Z,1.50
2023-11-20T10:56:15.758Z,2.10
2023-11-20T10:58:48.496Z,2.10
2023-11-20T11:01:20.195Z,2.00
2023-11-20T11:03:53.323Z,1.60
2023-11-20T11:06:26.324Z,1.50
2023-11-20T11:09:00.901Z,1.60
2023-11-20T11:11:34.319Z,1.20
2023-11-20T11:14:05.674Z,1.30
2023-11-20T11:16:44.276Z,1.20
2023-11-20T11:19:18.927Z,1.70
2023-11-20T11:21:58.576Z,1.50
2023-11-20T11:24:34.647Z,1.30
2023-11-20T11:27:12.320Z,1.50
2023-11-20T11:29:48.651Z,1.60
2023-11-20T11:32:49.191Z,1.60
2023-11-20T11:35:35.273Z,1.50
2023-11-20T11:38:14.014Z,1.60
2023-11-20T11:43:32.381Z,1.30
2023-11-20T11:46:05.178Z,1.50
2023-11-20T11:48:40.481Z,1.30
2023-11-20T11:51:25.685Z,1.50
2023-11-20T11:54:17.731Z,1.50
2023-11-20T11:57:02.819Z,1.70
2023-11-20T11:59:40.944Z,2.00
2023-11-20T12:02:14.385Z,1.90
2023-11-20T12:05:09.358Z,1.30
2023-11-20T12:07:56.079Z,1.90
2023-11-20T12:10:44.829Z,1.30
2023-11-20T12:13:17.954Z,3.90
2023-11-20T12:15:52.632Z,1.90
2023-11-20T12:18:25.792Z,1.40
2023-11-20T12:21:08.245Z,2.00
2023-11-20T12:23:40.738Z,1.20
2023-11-20T12:26:13.596Z,1.90
2023-11-20T12:28:46.021Z,1.60
2023-11-20T12:31:17.503Z,1.50
2023-11-20T12:33:49.348Z,1.30
2023-11-20T12:36:25.594Z,1.50
2023-11-20T12:38:59.705Z,1.70
2023-11-20T12:41:31.357Z,1.90
2023-11-20T12:44:02.968Z,1.50
2023-11-20T12:46:34.452Z,1.20
2023-11-20T12:49:06.024Z,1.50
2023-11-20T12:51:38.552Z,1.50
2023-11-20T12:54:10.205Z,1.60
2023-11-20T12:56:41.589Z,1.20
2023-11-20T12:59:14.222Z,1.50
2023-11-20T13:01:45.605Z,1.40
2023-11-20T13:04:17.159Z,1.20
2023-11-20T13:06:50.144Z,1.30
2023-11-20T13:09:21.663Z,1.80
2023-11-20T13:11:56.329Z,1.30
2023-11-20T13:14:28.398Z,1.40
2023-11-20T13:17:00.883Z,1.30
2023-11-20T13:19:43.386Z,1.20
2023-11-20T13:22:14.890Z,1.30
2023-11-20T13:24:56.610Z,1.40
2023-11-20T13:27:28.898Z,2.00
2023-11-20T13:30:16.503Z,1.10
2023-11-20T13:32:48.380Z,1.10
2023-11-20T13:35:21.036Z,1.30
2023-11-20T13:37:57.653Z,1.30
2023-11-20T13:40:37.037Z,2.10
2023-11-20T13:43:14.657Z,1.20
2023-11-20T13:45:48.375Z,1.30
2023-11-20T13:48:19.705Z,1.20
2023-11-20T13:50:51.292Z,1.40
2023-11-20T13:53:25.266Z,1.40
2023-11-20T13:55:58.510Z,1.40
2023-11-20T13:58:30.593Z,1.40
2023-11-20T14:01:03.615Z,1.60
2023-11-20T14:03:35.239Z,1.30
2023-11-20T14:06:08.670Z,1.80
2023-11-20T14:08:40.075Z,1.40
2023-11-20T14:11:11.381Z,4.50
2023-11-20T14:13:43.628Z,2.80
2023-11-20T14:16:15.164Z,5.90
2023-11-20T14:18:46.683Z,1.50
2023-11-20T14:21:18.652Z,1.20
2023-11-20T14:23:49.983Z,1.60
2023-11-20T14:26:29.824Z,1.20
2023-11-20T14:29:06.626Z,1.50
2023-11-20T14:31:39.976Z,1.60
2023-11-20T14:34:11.592Z,1.20
2023-11-20T14:36:43.042Z,1.60
2023-11-20T14:39:14.565Z,1.80
2023-11-20T14:41:45.942Z,1.50
2023-11-20T14:44:17.285Z,1.40
2023-11-20T14:46:48.644Z,1.20
2023-11-20T14:49:20.005Z,2.00
2023-11-20T14:51:52.297Z,1.60
2023-11-20T14:54:24.322Z,1.30
2023-11-20T14:56:55.636Z,1.30
2023-11-20T14:59:27.304Z,1.20
2023-11-20T15:01:58.655Z,1.40
2023-11-20T15:04:30.060Z,1.90
2023-11-20T15:07:01.606Z,1.50
2023-11-20T15:09:33.312Z,1.70
2023-11-20T15:12:05.741Z,1.50
2023-11-20T15:14:39.350Z,1.30
2023-11-20T15:17:10.915Z,1.40
2023-11-20T15:19:42.299Z,1.50
2023-11-20T15:22:13.652Z,1.40
2023-11-20T15:24:44.996Z,1.50
2023-11-20T15:27:16.465Z,1.50
2023-11-20T15:29:47.786Z,2.10
2023-11-20T15:32:19.063Z,1.60
2023-11-20T15:34:50.495Z,1.40
2023-11-20T15:37:22.100Z,1.30
2023-11-20T15:39:53.770Z,1.30
2023-11-20T15:42:25.143Z,1.40
2023-11-20T15:44:56.568Z,1.80
2023-11-20T15:47:28.103Z,1.90
2023-11-20T15:50:00.583Z,2.00
2023-11-20T15:52:32.036Z,2.00
2023-11-20T15:55:03.798Z,2.10
2023-11-20T15:57:35.378Z,1.70
2023-11-20T16:00:12.632Z,1.90
2023-11-20T16:02:44.522Z,1.60
2023-11-20T16:05:16.063Z,2.30
2023-11-20T16:07:47.437Z,2.30
2023-11-20T16:10:18.929Z,2.80
2023-11-20T16:12:50.307Z,2.80
2023-11-20T16:15:21.790Z,2.10
2023-11-20T16:17:53.205Z,2.10
2023-11-20T16:20:24.718Z,2.40
2023-11-20T16:22:56.176Z,2.70
2023-11-20T16:25:36.409Z,2.00
2023-11-20T16:28:13.893Z,2.30
2023-11-20T16:30:45.876Z,2.20
2023-11-20T16:33:17.317Z,2.20
2023-11-20T16:35:48.957Z,2.30
2023-11-20T16:38:20.305Z,2.30
2023-11-20T16:40:51.661Z,2.30
2023-11-20T16:43:23.424Z,2.70
2023-11-20T16:45:54.801Z,2.40
2023-11-20T16:48:27.261Z,2.50
2023-11-20T16:50:58.648Z,3.00
2023-11-20T16:53:29.982Z,2.70
2023-11-20T16:56:01.370Z,2.20
2023-11-20T16:58:32.778Z,2.90
2023-11-20T17:01:04.920Z,2.60
2023-11-20T17:03:36.547Z,2.60
2023-11-20T17:06:09.376Z,3.60
2023-11-20T17:08:40.705Z,3.50
2023-11-20T17:11:11.996Z,3.10
2023-11-20T17:13:43.980Z,4.10
2023-11-20T17:16:16.037Z,3.40
2023-11-20T17:18:48.214Z,3.80
2023-11-20T17:21:19.521Z,3.90
2023-11-20T17:23:50.917Z,4.90
2023-11-20T17:26:22.149Z,3.90
2023-11-20T17:28:54.067Z,4.10
2023-11-20T17:31:27.741Z,4.30
2023-11-20T17:34:00.547Z,4.30
2023-11-20T17:36:31.966Z,4.30
2023-11-20T17:39:03.652Z,4.00
2023-11-20T17:41:34.890Z,3.60
2023-11-20T17:44:06.690Z,3.30
2023-11-20T17:46:39.628Z,3.10
2023-11-20T17:49:11.143Z,2.80
2023-11-20T17:51:49.745Z,3.00
2023-11-20T17:54:21.024Z,3.40
2023-11-20T17:56:52.344Z,3.30
2023-11-20T17:59:23.656Z,4.00
2023-11-20T18:01:56.504Z,3.50
2023-11-20T18:04:28.338Z,3.10
2023-11-20T18:06:59.883Z,3.70
2023-11-20T18:09:31.299Z,4.40
2023-11-20T18:12:02.660Z,3.90
2023-11-20T18:14:33.921Z,7.00
2023-11-20T18:17:06.118Z,4.30
2023-11-20T18:19:37.457Z,4.10
2023-11-20T18:22:11.443Z,3.20
2023-11-20T18:24:44.008Z,3.10
2023-11-20T18:27:15.338Z,3.60
2023-11-20T18:29:46.726Z,3.60
2023-11-20T18:32:18.814Z,4.00
2023-11-20T18:34:51.509Z,3.40
2023-11-20T18:37:22.876Z,3.60
2023-11-20T18:39:54.786Z,3.80
2023-11-20T18:42:25.942Z,3.50
2023-11-20T18:44:57.162Z,3.40
2023-11-20T18:47:29.498Z,3.10
2023-11-20T18:50:03.716Z,3.30
2023-11-20T18:52:35.128Z,3.00
2023-11-20T18:55:07.481Z,3.10
2023-11-20T18:57:44.975Z,3.20
2023-11-20T19:00:19.487Z,3.90
2023-11-20T19:02:53.158Z,3.50
2023-11-20T19:05:25.196Z,3.30
2023-11-20T19:07:57.608Z,3.60
2023-11-20T19:10:29.706Z,3.30
2023-11-20T19:13:01.616Z,3.30
2023-11-20T19:15:33.734Z,3.10
2023-11-20T19:18:06.930Z,3.00
2023-11-20T19:20:38.261Z,3.60
2023-11-20T19:23:09.796Z,4.00
2023-11-20T19:25:41.639Z,5.10
2023-11-20T19:28:13.847Z,6.00
2023-11-20T19:30:45.310Z,4.30
2023-11-20T19:33:16.849Z,4.40
2023-11-20T19:35:48.207Z,4.20
2023-11-20T19:38:19.851Z,3.60
2023-11-20T19:40:51.165Z,3.10
2023-11-20T19:43:22.809Z,3.20
2023-11-20T19:45:54.441Z,3.60
2023-11-20T19:48:26.258Z,3.70
2023-11-20T19:50:57.669Z,3.70
2023-11-20T19:53:29.075Z,3.50
2023-11-20T19:56:00.344Z,4.50
2023-11-20T19:58:31.751Z,3.90
2023-11-20T20:01:03.411Z,4.30
2023-11-20T20:03:34.996Z,3.70
2023-11-20T20:06:08.592Z,3.70
2023-11-20T20:08:40.698Z,3.50
2023-11-20T20:11:12.042Z,4.00
2023-11-20T20:13:43.288Z,6.10
2023-11-20T20:16:14.738Z,5.30
2023-11-20T20:18:46.194Z,5.80
2023-11-20T20:21:18.021Z,4.70
2023-11-20T20:26:30.712Z,4.40
2023-11-20T20:29:02.386Z,5.10
2023-11-20T20:31:34.659Z,6.10
2023-11-20T20:34:06.899Z,5.20
2023-11-20T20:36:38.442Z,5.70
2023-11-20T20:39:10.146Z,4.70
2023-11-20T20:41:41.540Z,4.90
2023-11-20T20:44:13.670Z,5.00
2023-11-20T20:46:45.278Z,4.40
2023-11-20T20:49:16.663Z,6.50
2023-11-20T20:51:47.913Z,16.30
2023-11-20T20:54:20.236Z,5.60
2023-11-20T20:56:51.489Z,5.20
2023-11-20T20:59:22.684Z,4.60
2023-11-20T21:01:54.054Z,3.70
2023-11-20T21:04:25.946Z,4.40
2023-11-20T21:06:58.391Z,4.00
2023-11-20T21:09:29.779Z,4.50
2023-11-20T21:12:01.086Z,4.50
2023-11-20T21:14:32.354Z,4.80
2023-11-20T21:17:04.945Z,4.50
2023-11-20T21:19:36.537Z,4.30
2023-11-20T21:22:09.550Z,4.50
2023-11-20T21:24:40.941Z,4.50
2023-11-20T21:27:13.142Z,4.10
2023-11-20T21:29:45.030Z,4.50
2023-11-20T21:32:16.328Z,4.30
2023-11-20T21:34:55.412Z,5.50
2023-11-20T21:37:34.104Z,4.30
2023-11-20T21:40:07.359Z,3.90
2023-11-20T21:42:38.884Z,5.60
2023-11-20T21:45:11.945Z,4.60
2023-11-20T21:47:43.419Z,3.90
2023-11-20T21:50:14.725Z,4.00
2023-11-20T21:52:46.014Z,3.50
2023-11-20T21:55:17.456Z,4.40
2023-11-20T21:57:50.971Z,3.40
2023-11-20T22:00:24.408Z,3.90
2023-11-20T22:02:57.503Z,3.70
2023-11-20T22:05:29.074Z,3.40
2023-11-20T22:08:00.360Z,2.80
2023-11-20T22:10:31.657Z,3.20
2023-11-20T22:13:03.980Z,3.20
2023-11-20T22:15:35.302Z,2.60
2023-11-20T22:18:06.955Z,2.90
2023-11-20T22:20:38.305Z,2.50
2023-11-20T22:23:09.617Z,2.80
2023-11-20T22:25:40.968Z,2.80
2023-11-20T22:28:12.688Z,2.40
2023-11-20T22:30:44.298Z,2.30
2023-11-20T22:33:15.761Z,2.30
2023-11-20T22:35:47.680Z,2.60
2023-11-20T22:38:19.357Z,2.40
2023-11-20T22:40:51.065Z,3.00
2023-11-20T22:43:22.484Z,2.20
2023-11-20T22:45:53.784Z,2.20
2023-11-20T22:48:25.111Z,2.20
2023-11-20T22:50:57.187Z,2.40
2023-11-20T22:53:29.107Z,2.40
2023-11-20T22:56:00.459Z,2.60
2023-11-20T22:58:32.219Z,2.80
2023-11-20T23:01:06.899Z,2.30
2023-11-20T23:03:38.461Z,2.90
2023-11-20T23:06:10.962Z,3.20
2023-11-20T23:08:43.121Z,2.80
2023-11-20T23:11:14.816Z,2.30
2023-11-20T23:13:46.219Z,2.20
2023-11-20T23:16:17.781Z,2.30
2023-11-20T23:18:49.372Z,2.40
2023-11-20T23:21:21.411Z,2.90
2023-11-20T23:23:53.381Z,2.50
2023-11-20T23:26:26.336Z,2.80
2023-11-20T23:31:31.355Z,3.70
2023-11-20T23:34:02.864Z,3.00
2023-11-20T23:36:34.280Z,2.70
2023-11-20T23:39:08.115Z,3.80
2023-11-20T23:41:39.499Z,3.30
2023-11-20T23:44:11.003Z,3.10
2023-11-20T23:46:43.470Z,4.20
2023-11-20T23:49:14.907Z,3.70
2023-11-20T23:51:46.252Z,4.20
2023-11-20T23:54:18.198Z,3.70
2023-11-20T23:56:49.518Z,4.40
2023-11-20T23:59:21.589Z,3.80
